Time;durP1;ratioP1;P1;durP2;ratioP2;P2;SDS_P1;SDS_P2;PMS_P1;PMS_P2;Temp;Humidity;BMP_temperature;BMP_pressure;BME280_temperature;BME280_humidity;BME280_pressure;Samples;Min_cycle;Max_cycle;Signal;HPM_P1;HPM_P2
2021/09/28 00:00:22;;;;;;;3.20;2.43;;;;;21.70;101041.00;;;;2085242;28;20213;-55
2021/09/28 00:01:23;;;;;;;3.50;2.53;;;;;21.70;101046.00;;;;2089094;28;20676;-55
2021/09/28 00:02:23;;;;;;;5.43;2.50;;;;;21.70;101043.00;;;;2088222;28;20275;-54
2021/09/28 00:03:26;;;;;;;4.20;3.10;;;;;21.70;101045.00;;;;2087494;28;20219;-54
2021/09/28 00:04:27;;;;;;;4.47;2.80;;;;;21.70;101044.00;;;;2078028;28;20309;-55
2021/09/28 00:05:30;;;;;;;4.97;2.50;;;;;21.70;101042.00;;;;2076602;28;20638;-55
2021/09/28 00:06:30;;;;;;;3.00;2.25;;;;;21.70;101036.00;;;;2084526;28;20259;-54
2021/09/28 00:07:30;;;;;;;5.20;2.57;;;;;21.70;101043.00;;;;2084711;28;20209;-55
2021/09/28 00:08:31;;;;;;;4.37;2.50;;;;;21.70;101044.00;;;;2085508;28;20690;-54
2021/09/28 00:09:31;;;;;;;4.13;2.57;;;;;21.70;101042.00;;;;2084487;28;20346;-54
2021/09/28 00:10:33;;;;;;;3.90;2.17;;;;;21.70;101039.00;;;;2085320;28;20744;-55
2021/09/28 00:11:34;;;;;;;3.88;2.45;;;;;21.70;101037.00;;;;2083921;28;20217;-55
2021/09/28 00:12:34;;;;;;;3.23;2.33;;;;;21.70;101040.00;;;;2087498;28;20702;-56
2021/09/28 00:13:35;;;;;;;3.53;2.40;;;;;21.70;101045.00;;;;2093825;28;20318;-55
2021/09/28 00:14:36;;;;;;;4.03;2.50;;;;;21.70;101046.00;;;;2093848;28;20217;-55
2021/09/28 00:15:37;;;;;;;4.18;2.40;;;;;21.70;101048.00;;;;2093902;28;20238;-54
2021/09/28 00:16:37;;;;;;;2.40;2.00;;;;;21.70;101045.00;;;;2093071;28;20745;-54
2021/09/28 00:17:38;;;;;;;2.90;2.10;;;;;21.70;101053.00;;;;2093641;28;20311;-53
2021/09/28 00:18:38;;;;;;;3.27;2.13;;;;;21.70;101056.00;;;;2093594;28;20343;-54
2021/09/28 00:19:38;;;;;;;4.67;2.30;;;;;21.70;101055.00;;;;2092065;28;20295;-55
2021/09/28 00:20:39;;;;;;;3.73;2.60;;;;;21.70;101050.00;;;;2093904;28;20247;-55
2021/09/28 00:21:40;;;;;;;2.57;1.97;;;;;21.70;101054.00;;;;2087635;28;20217;-53
2021/09/28 00:22:40;;;;;;;5.77;2.30;;;;;21.70;101062.00;;;;2085586;28;20213;-54
2021/09/28 00:23:40;;;;;;;3.17;1.97;;;;;21.70;101053.00;;;;2092765;28;20209;-55
2021/09/28 00:24:41;;;;;;;3.27;2.17;;;;;21.70;101052.00;;;;2093752;28;20346;-54
2021/09/28 00:25:42;;;;;;;3.63;2.07;;;;;21.70;101057.00;;;;2093733;28;20269;-55
2021/09/28 00:26:42;;;;;;;3.90;2.10;;;;;21.70;101059.00;;;;2093533;28;20867;-54
2021/09/28 00:27:42;;;;;;;4.40;2.27;;;;;21.70;101055.00;;;;2092779;28;20282;-53
2021/09/28 00:28:43;;;;;;;2.63;2.00;;;;;21.70;101054.00;;;;2086616;28;20217;-55
2021/09/28 00:29:43;;;;;;;3.87;2.20;;;;;21.70;101060.00;;;;2087059;28;20205;-55
2021/09/28 00:30:45;;;;;;;3.67;2.33;;;;;21.70;101059.00;;;;2093898;28;20307;-55
2021/09/28 00:31:46;;;;;;;1.92;1.52;;;;;21.70;101065.00;;;;2086961;28;20221;-56
2021/09/28 00:32:47;;;;;;;5.77;2.03;;;;;21.70;101063.00;;;;2086733;28;20221;-55
2021/09/28 00:33:47;;;;;;;3.60;2.17;;;;;21.70;101064.00;;;;2086449;28;20705;-55
2021/09/28 00:34:47;;;;;;;3.20;1.83;;;;;21.70;101059.00;;;;2090091;28;20212;-55
2021/09/28 00:35:48;;;;;;;4.57;2.13;;;;;21.70;101065.00;;;;2093512;28;20216;-55
2021/09/28 00:36:48;;;;;;;3.83;2.37;;;;;21.70;101057.00;;;;2093669;28;20215;-55
2021/09/28 00:37:49;;;;;;;2.90;1.80;;;;;21.70;101061.00;;;;2092712;28;20220;-54
2021/09/28 00:38:50;;;;;;;3.80;1.70;;;;;21.70;101055.00;;;;2090564;28;20311;-54
2021/09/28 00:39:50;;;;;;;2.90;1.92;;;;;21.70;101055.00;;;;2093025;28;20584;-55
2021/09/28 00:40:51;;;;;;;2.50;1.67;;;;;21.70;101060.00;;;;2092552;28;20223;-54
2021/09/28 00:41:52;;;;;;;3.20;2.13;;;;;21.70;101057.00;;;;2088833;28;20220;-55
2021/09/28 00:42:52;;;;;;;3.57;1.70;;;;;21.70;101060.00;;;;2084919;28;20213;-53
2021/09/28 00:43:54;;;;;;;2.37;1.97;;;;;21.70;101058.00;;;;2085340;28;20217;-55
2021/09/28 00:44:54;;;;;;;3.15;1.98;;;;;21.70;101055.00;;;;2074536;28;20235;-54
2021/09/28 00:45:55;;;;;;;3.57;1.93;;;;;21.70;101057.00;;;;2084134;28;20259;-54
2021/09/28 00:46:57;;;;;;;2.85;2.15;;;;;21.70;101061.00;;;;2084375;28;20217;-54
2021/09/28 00:47:57;;;;;;;4.67;2.20;;;;;21.70;101059.00;;;;2080749;28;20701;-54
2021/09/28 00:48:58;;;;;;;3.53;1.53;;;;;21.70;101058.00;;;;2083697;28;20466;-54
2021/09/28 00:49:58;;;;;;;2.70;1.70;;;;;21.70;101062.00;;;;2083393;28;20756;-54
2021/09/28 00:50:59;;;;;;;2.90;1.70;;;;;21.70;101063.00;;;;2079615;28;20209;-55
2021/09/28 00:51:59;;;;;;;3.23;2.07;;;;;21.70;101056.00;;;;2079892;28;20691;-55
2021/09/28 00:52:59;;;;;;;3.60;2.00;;;;;21.70;101070.00;;;;2079792;28;20609;-53
2021/09/28 00:54:00;;;;;;;2.60;1.70;;;;;21.70;101059.00;;;;2079854;28;20337;-54
2021/09/28 00:55:00;;;;;;;2.70;1.40;;;;;21.70;101065.00;;;;2078720;28;20213;-55
2021/09/28 00:56:00;;;;;;;3.20;1.90;;;;;21.70;101057.00;;;;2078684;28;20209;-55
2021/09/28 00:57:01;;;;;;;3.20;1.53;;;;;21.70;101064.00;;;;2079781;28;20730;-54
2021/09/28 00:58:08;;;;;;;4.00;1.73;;;;;21.70;101060.00;;;;2087293;28;20581;-54
2021/09/28 00:59:08;;;;;;;3.15;1.52;;;;;21.70;101055.00;;;;2085936;28;20217;-55
2021/09/28 01:00:10;;;;;;;2.87;1.50;;;;;21.60;101064.00;;;;2087398;28;20856;-54
2021/09/28 01:01:10;;;;;;;2.38;1.70;;;;;21.70;101066.00;;;;2084680;28;20705;-55
2021/09/28 01:02:12;;;;;;;3.50;1.90;;;;;21.70;101078.00;;;;2081590;28;20209;-55
2021/09/28 01:03:12;;;;;;;2.92;1.83;;;;;21.70;101073.00;;;;2083527;28;20540;-54
2021/09/28 01:04:18;;;;;;;2.80;1.83;;;;;21.70;101076.00;;;;2079923;28;20353;-55
2021/09/28 01:05:19;;;;;;;2.88;2.28;;;;;21.70;101073.00;;;;2083780;28;20298;-55
2021/09/28 01:06:19;;;;;;;3.03;1.33;;;;;21.70;101063.00;;;;2087525;28;20250;-55
2021/09/28 01:07:19;;;;;;;2.00;1.50;;;;;21.60;101068.00;;;;2080381;28;20683;-55
2021/09/28 01:08:20;;;;;;;3.37;1.70;;;;;21.70;101072.00;;;;2081772;28;20571;-54
2021/09/28 01:09:20;;;;;;;3.50;1.70;;;;;21.60;101079.00;;;;2079056;28;20217;-55
2021/09/28 01:10:21;;;;;;;3.03;2.07;;;;;21.60;101068.00;;;;2079334;28;20218;-55
2021/09/28 01:11:21;;;;;;;5.20;2.10;;;;;21.70;101077.00;;;;2079124;28;20221;-54
2021/09/28 01:12:22;;;;;;;2.90;1.57;;;;;21.70;101078.00;;;;2079277;28;20243;-55
2021/09/28 01:13:22;;;;;;;2.50;1.53;;;;;21.60;101073.00;;;;2079337;28;20213;-54
2021/09/28 01:14:23;;;;;;;3.83;1.70;;;;;21.60;101073.00;;;;2078891;28;20213;-55
2021/09/28 01:15:23;;;;;;;2.93;1.90;;;;;21.60;101079.00;;;;2079149;28;20216;-55
2021/09/28 01:16:24;;;;;;;4.70;1.83;;;;;21.60;101078.00;;;;2079685;28;20472;-55
2021/09/28 01:17:24;;;;;;;2.50;1.63;;;;;21.60;101080.00;;;;2081340;28;20311;-54
2021/09/28 01:18:29;;;;;;;2.13;1.50;;;;;21.60;101082.00;;;;2086741;28;20976;-54
2021/09/28 01:19:29;;;;;;;2.78;1.70;;;;;21.60;101076.00;;;;2085859;28;20272;-54
2021/09/28 01:20:29;;;;;;;2.57;1.50;;;;;21.70;101078.00;;;;2086165;28;20221;-54
2021/09/28 01:21:30;;;;;;;3.00;1.77;;;;;21.60;101083.00;;;;2087377;28;20804;-56
2021/09/28 01:22:30;;;;;;;3.30;1.60;;;;;21.70;101063.00;;;;2087264;28;20554;-56
2021/09/28 01:23:31;;;;;;;2.50;1.37;;;;;21.60;101083.00;;;;2086200;28;20704;-54
2021/09/28 01:24:31;;;;;;;3.90;2.07;;;;;21.60;101086.00;;;;2084319;28;20603;-54
2021/09/28 01:25:31;;;;;;;3.03;1.27;;;;;21.60;101083.00;;;;2079054;28;20221;-54
2021/09/28 01:26:32;;;;;;;5.23;1.90;;;;;21.60;101082.00;;;;2082885;28;20229;-55
2021/09/28 01:27:37;;;;;;;3.40;1.83;;;;;21.60;101080.00;;;;2086059;28;20271;-53
2021/09/28 01:28:37;;;;;;;3.30;1.55;;;;;21.60;101080.00;;;;2078440;28;20935;-55
2021/09/28 01:29:38;;;;;;;2.77;1.63;;;;;21.60;101074.00;;;;2086031;28;20262;-54
2021/09/28 01:30:38;;;;;;;2.83;1.70;;;;;21.60;101082.00;;;;2087417;28;20247;-54
2021/09/28 01:31:38;;;;;;;3.77;1.50;;;;;21.60;101081.00;;;;2081477;28;20209;-53
2021/09/28 01:32:39;;;;;;;2.00;1.50;;;;;21.60;101082.00;;;;2080824;28;20252;-54
2021/09/28 01:33:39;;;;;;;3.77;1.43;;;;;21.60;101089.00;;;;2080433;28;20210;-55
2021/09/28 01:34:39;;;;;;;3.53;1.70;;;;;21.60;101084.00;;;;2079484;28;20209;-54
2021/09/28 01:35:40;;;;;;;3.07;1.40;;;;;21.60;101088.00;;;;2079325;28;20220;-54
2021/09/28 01:36:40;;;;;;;2.90;1.47;;;;;21.60;101096.00;;;;2079461;28;20245;-55
2021/09/28 01:37:41;;;;;;;4.17;1.57;;;;;21.60;101090.00;;;;2085492;28;20275;-55
2021/09/28 01:38:41;;;;;;;4.03;1.30;;;;;21.60;101095.00;;;;2083913;28;20220;-55
2021/09/28 01:39:41;;;;;;;2.93;1.30;;;;;21.60;101095.00;;;;2086501;28;20217;-55
2021/09/28 01:40:42;;;;;;;4.50;1.27;;;;;21.60;101090.00;;;;2085262;28;20303;-55
2021/09/28 01:41:43;;;;;;;2.70;1.57;;;;;21.60;101083.00;;;;2086333;28;20900;-55
2021/09/28 01:42:43;;;;;;;2.13;1.50;;;;;21.60;101080.00;;;;2087764;28;20208;-54
2021/09/28 01:43:43;;;;;;;2.40;1.50;;;;;21.60;101100.00;;;;2087217;28;20448;-55
2021/09/28 01:44:44;;;;;;;2.47;1.13;;;;;21.60;101084.00;;;;2079502;28;20217;-55
2021/09/28 01:45:44;;;;;;;2.93;1.50;;;;;21.60;101088.00;;;;2087695;28;20213;-55
2021/09/28 01:46:45;;;;;;;3.57;1.60;;;;;21.60;101087.00;;;;2087392;28;20247;-53
2021/09/28 01:47:46;;;;;;;4.93;1.65;;;;;21.60;101095.00;;;;2087706;28;20223;-53
2021/09/28 01:48:52;;;;;;;4.53;1.43;;;;;21.60;101092.00;;;;2086716;28;20217;-55
2021/09/28 01:49:52;;;;;;;2.17;1.30;;;;;21.60;101092.00;;;;2083825;28;20275;-53
2021/09/28 01:50:52;;;;;;;3.03;1.50;;;;;21.60;101088.00;;;;2079649;28;20671;-54
2021/09/28 01:51:53;;;;;;;2.10;1.40;;;;;21.60;101099.00;;;;2079211;28;20295;-54
2021/09/28 01:52:53;;;;;;;2.83;1.80;;;;;21.60;101099.00;;;;2079051;28;20221;-55
2021/09/28 01:53:53;;;;;;;3.00;1.53;;;;;21.60;101101.00;;;;2079295;28;20218;-54
2021/09/28 01:54:54;;;;;;;2.33;1.43;;;;;21.60;101099.00;;;;2079343;28;20220;-54
2021/09/28 01:55:54;;;;;;;2.47;1.40;;;;;21.60;101089.00;;;;2079437;28;20578;-55
2021/09/28 01:56:54;;;;;;;3.03;1.73;;;;;21.60;101096.00;;;;2079271;28;20296;-54
2021/09/28 01:57:58;;;;;;;2.90;1.40;;;;;21.60;101103.00;;;;2079421;28;20317;-54
2021/09/28 01:58:59;;;;;;;3.33;1.30;;;;;21.60;101105.00;;;;2078096;28;20257;-55
2021/09/28 02:00:00;;;;;;;2.90;1.60;;;;;21.60;101100.00;;;;2079310;28;20222;-54
2021/09/28 02:01:00;;;;;;;3.10;1.40;;;;;21.60;101096.00;;;;2080127;28;20304;-54
2021/09/28 02:02:01;;;;;;;5.30;1.60;;;;;21.60;101106.00;;;;2083238;28;20263;-55
2021/09/28 02:03:01;;;;;;;1.80;1.23;;;;;21.60;101103.00;;;;2078824;28;20225;-54
2021/09/28 02:04:02;;;;;;;2.80;1.70;;;;;21.60;101111.00;;;;2079470;28;20566;-55
2021/09/28 02:05:03;;;;;;;2.47;1.33;;;;;21.60;101102.00;;;;2074928;28;20264;-55
2021/09/28 02:06:03;;;;;;;2.30;1.60;;;;;21.60;101100.00;;;;2071187;28;20221;-55
2021/09/28 02:07:03;;;;;;;2.23;1.20;;;;;21.60;101104.00;;;;2086728;28;20705;-55
2021/09/28 02:08:04;;;;;;;1.70;1.33;;;;;21.60;101094.00;;;;2087084;28;20593;-54
2021/09/28 02:09:06;;;;;;;2.13;1.43;;;;;21.60;101090.00;;;;2085321;28;20224;-54
2021/09/28 02:10:06;;;;;;;2.95;1.50;;;;;21.60;101099.00;;;;2083890;28;20221;-54
2021/09/28 02:11:07;;;;;;;3.07;1.70;;;;;21.60;101095.00;;;;2079114;28;20229;-55
2021/09/28 02:12:07;;;;;;;3.83;1.40;;;;;21.60;101106.00;;;;2077264;28;20210;-55
2021/09/28 02:13:08;;;;;;;3.90;1.90;;;;;21.60;101095.00;;;;2079080;28;20711;-54
2021/09/28 02:14:08;;;;;;;2.80;1.93;;;;;21.60;101102.00;;;;2078383;28;20758;-54
2021/09/28 02:15:09;;;;;;;3.07;1.20;;;;;21.60;101103.00;;;;2078827;28;20221;-55
2021/09/28 02:16:10;;;;;;;3.27;1.60;;;;;21.60;101092.00;;;;2086394;28;20201;-56
2021/09/28 02:17:10;;;;;;;2.13;1.50;;;;;21.60;101103.00;;;;2086331;28;20481;-54
2021/09/28 02:18:10;;;;;;;4.87;1.77;;;;;21.50;101112.00;;;;2086605;28;20708;-54
2021/09/28 02:19:11;;;;;;;4.87;1.50;;;;;21.60;101095.00;;;;2079058;28;20221;-55
2021/09/28 02:20:13;;;;;;;2.45;1.25;;;;;21.60;101100.00;;;;2078757;28;20224;-54
2021/09/28 02:21:13;;;;;;;2.63;1.50;;;;;21.50;101104.00;;;;2079177;28;20645;-55
2021/09/28 02:22:15;;;;;;;3.43;1.53;;;;;21.60;101093.00;;;;2079304;28;20457;-55
2021/09/28 02:23:15;;;;;;;4.35;1.75;;;;;21.60;101095.00;;;;2078107;28;20214;-55
2021/09/28 02:24:16;;;;;;;1.93;1.40;;;;;21.50;101105.00;;;;2082978;28;20212;-54
2021/09/28 02:25:19;;;;;;;3.00;1.37;;;;;21.60;101105.00;;;;2084554;28;20593;-54
2021/09/28 02:26:19;;;;;;;2.47;1.40;;;;;21.50;101099.00;;;;2081671;28;20286;-55
2021/09/28 02:27:19;;;;;;;2.10;1.40;;;;;21.50;101104.00;;;;2079131;28;20213;-55
2021/09/28 02:28:20;;;;;;;3.17;1.40;;;;;21.50;101103.00;;;;2078938;28;20217;-55
2021/09/28 02:29:20;;;;;;;3.33;1.33;;;;;21.50;101100.00;;;;2078069;28;20252;-55
2021/09/28 02:30:21;;;;;;;2.73;1.30;;;;;21.50;101102.00;;;;2079045;28;20586;-53
2021/09/28 02:31:22;;;;;;;3.67;1.60;;;;;21.60;101107.00;;;;2081206;28;20286;-55
2021/09/28 02:32:22;;;;;;;1.97;1.20;;;;;21.50;101095.00;;;;2082308;28;20627;-55
2021/09/28 02:33:22;;;;;;;2.60;1.83;;;;;21.50;101104.00;;;;2081263;28;20217;-55
2021/09/28 02:34:23;;;;;;;2.60;1.00;;;;;21.50;101091.00;;;;2080427;28;20209;-54
2021/09/28 02:35:24;;;;;;;4.10;1.53;;;;;21.50;101093.00;;;;2080780;28;20717;-55
2021/09/28 02:36:25;;;;;;;2.70;1.45;;;;;21.50;101099.00;;;;2080725;28;20217;-55
2021/09/28 02:37:25;;;;;;;2.70;1.10;;;;;21.50;101096.00;;;;2075221;28;20267;-54
2021/09/28 02:38:25;;;;;;;4.83;1.30;;;;;21.50;101094.00;;;;2078430;28;20213;-54
2021/09/28 02:39:26;;;;;;;3.47;1.33;;;;;21.60;101092.00;;;;2077413;28;21013;-53
2021/09/28 02:40:26;;;;;;;2.43;1.23;;;;;21.50;101099.00;;;;2078295;28;20275;-54
2021/09/28 02:41:27;;;;;;;2.50;1.23;;;;;21.50;101101.00;;;;2078073;28;20225;-53
2021/09/28 02:42:29;;;;;;;3.73;1.37;;;;;21.50;101099.00;;;;2082791;28;20549;-54
2021/09/28 02:43:29;;;;;;;2.72;1.48;;;;;21.50;101104.00;;;;2078262;28;20231;-55
2021/09/28 02:44:30;;;;;;;4.23;1.10;;;;;21.60;101094.00;;;;2078128;28;21143;-55
2021/09/28 02:45:30;;;;;;;2.37;1.30;;;;;21.50;101101.00;;;;2078971;28;20260;-55
2021/09/28 02:46:32;;;;;;;3.23;1.53;;;;;21.50;101093.00;;;;2075206;28;20210;-54
2021/09/28 02:47:32;;;;;;;3.67;1.40;;;;;21.50;101105.00;;;;2078325;28;20221;-53
2021/09/28 02:48:32;;;;;;;2.50;1.13;;;;;21.50;101100.00;;;;2078961;28;20840;-55
2021/09/28 02:49:33;;;;;;;5.00;1.57;;;;;21.50;101096.00;;;;2077767;28;20292;-54
2021/09/28 02:50:34;;;;;;;3.07;1.50;;;;;21.50;101099.00;;;;2078001;28;20263;-54
2021/09/28 02:51:35;;;;;;;3.40;1.27;;;;;21.40;101101.00;;;;2084874;28;20217;-55
2021/09/28 02:52:35;;;;;;;2.20;1.30;;;;;21.50;101100.00;;;;2086955;28;21024;-54
2021/09/28 02:53:35;;;;;;;3.07;1.57;;;;;21.50;101117.00;;;;2087172;28;20225;-54
2021/09/28 02:54:36;;;;;;;3.37;1.23;;;;;21.50;101100.00;;;;2086489;28;20717;-54
2021/09/28 02:55:36;;;;;;;2.70;1.50;;;;;21.50;101109.00;;;;2086871;28;20304;-55
2021/09/28 02:56:37;;;;;;;2.93;1.20;;;;;21.50;101108.00;;;;2087178;28;20219;-55
2021/09/28 02:57:37;;;;;;;4.73;1.63;;;;;21.50;101108.00;;;;2086562;28;20304;-55
2021/09/28 02:58:38;;;;;;;3.60;1.57;;;;;21.50;101109.00;;;;2086938;28;20213;-54
2021/09/28 02:59:38;;;;;;;3.50;1.50;;;;;21.50;101101.00;;;;2085736;28;20216;-54
2021/09/28 03:00:38;;;;;;;2.90;1.20;;;;;21.50;101110.00;;;;2084779;28;20212;-55
2021/09/28 03:01:39;;;;;;;1.83;1.00;;;;;21.50;101101.00;;;;2084980;28;20262;-55
2021/09/28 03:02:39;;;;;;;2.43;1.40;;;;;21.50;101105.00;;;;2080510;28;20388;-55
2021/09/28 03:03:39;;;;;;;2.30;1.40;;;;;21.50;101101.00;;;;2080017;28;20276;-55
2021/09/28 03:04:40;;;;;;;3.93;1.50;;;;;21.50;101095.00;;;;2078961;28;20240;-55
2021/09/28 03:05:40;;;;;;;3.00;1.60;;;;;21.50;101095.00;;;;2078675;28;20213;-53
2021/09/28 03:06:40;;;;;;;1.73;1.10;;;;;21.50;101102.00;;;;2078443;28;20225;-54
2021/09/28 03:07:41;;;;;;;3.50;1.63;;;;;21.50;101100.00;;;;2078312;28;20272;-55
2021/09/28 03:08:41;;;;;;;2.13;1.20;;;;;21.50;101100.00;;;;2078343;28;20777;-55
2021/09/28 03:09:42;;;;;;;2.20;1.30;;;;;21.50;101100.00;;;;2078104;28;20271;-54
2021/09/28 03:10:43;;;;;;;2.40;1.20;;;;;21.50;101103.00;;;;2069876;28;20609;-54
2021/09/28 03:11:44;;;;;;;3.03;1.40;;;;;21.50;101103.00;;;;2068638;28;20206;-56
2021/09/28 03:12:44;;;;;;;2.00;1.20;;;;;21.50;101101.00;;;;2078678;28;20745;-55
2021/09/28 03:13:45;;;;;;;2.70;1.30;;;;;21.50;101109.00;;;;2078553;28;20225;-54
2021/09/28 03:14:45;;;;;;;2.80;1.50;;;;;21.50;101100.00;;;;2078217;28;20226;-54
2021/09/28 03:15:45;;;;;;;2.43;1.60;;;;;21.50;101105.00;;;;2078251;28;20228;-55
2021/09/28 03:16:47;;;;;;;2.00;1.20;;;;;21.50;101110.00;;;;2078505;28;20222;-53
2021/09/28 03:17:48;;;;;;;2.50;1.27;;;;;21.50;101106.00;;;;2077869;28;20221;-55
2021/09/28 03:18:49;;;;;;;2.10;1.50;;;;;21.50;101113.00;;;;2077766;28;20216;-53
2021/09/28 03:19:49;;;;;;;1.90;1.23;;;;;21.50;101100.00;;;;2077891;28;20249;-54
2021/09/28 03:20:50;;;;;;;3.47;1.50;;;;;21.50;101107.00;;;;2078213;28;20448;-55
2021/09/28 03:21:51;;;;;;;2.72;1.20;;;;;21.50;101104.00;;;;2077245;28;20217;-55
2021/09/28 03:22:52;;;;;;;2.83;1.40;;;;;21.50;101108.00;;;;2075537;28;20616;-54
2021/09/28 03:23:52;;;;;;;1.77;1.00;;;;;21.50;101109.00;;;;2078150;28;20452;-54
2021/09/28 03:24:52;;;;;;;6.10;1.60;;;;;21.50;101104.00;;;;2078196;28;20209;-53
2021/09/28 03:25:53;;;;;;;2.70;1.37;;;;;21.50;101109.00;;;;2076898;28;20641;-55
2021/09/28 03:26:53;;;;;;;1.60;0.97;;;;;21.50;101104.00;;;;2078482;28;20209;-55
2021/09/28 03:27:54;;;;;;;3.07;1.20;;;;;21.50;101111.00;;;;2078442;28;20221;-54
2021/09/28 03:28:54;;;;;;;3.30;1.30;;;;;21.50;101113.00;;;;2074588;28;20700;-55
2021/09/28 03:29:55;;;;;;;1.98;1.13;;;;;21.50;101113.00;;;;2078034;28;20205;-54
2021/09/28 03:30:55;;;;;;;3.83;1.17;;;;;21.50;101104.00;;;;2078865;28;20292;-53
2021/09/28 03:31:56;;;;;;;3.47;1.70;;;;;21.50;101119.00;;;;2085571;28;20213;-55
2021/09/28 03:32:56;;;;;;;3.53;1.47;;;;;21.50;101121.00;;;;2079563;28;20258;-55
2021/09/28 03:33:57;;;;;;;2.97;1.40;;;;;21.50;101118.00;;;;2079162;28;20208;-54
2021/09/28 03:34:57;;;;;;;3.10;1.40;;;;;21.50;101122.00;;;;2078422;28;20202;-54
2021/09/28 03:35:58;;;;;;;2.97;1.30;;;;;21.50;101121.00;;;;2078725;28;20202;-55
2021/09/28 03:36:58;;;;;;;3.13;1.40;;;;;21.50;101125.00;;;;2075866;28;20287;-55
2021/09/28 03:37:59;;;;;;;3.43;1.13;;;;;21.50;101127.00;;;;2078516;28;20225;-54
2021/09/28 03:38:59;;;;;;;3.83;1.30;;;;;21.50;101116.00;;;;2077100;28;20218;-55
2021/09/28 03:40:00;;;;;;;2.87;1.10;;;;;21.50;101125.00;;;;2077692;28;20254;-55
2021/09/28 03:41:00;;;;;;;2.90;1.40;;;;;21.50;101125.00;;;;2077992;28;20197;-55
2021/09/28 03:42:00;;;;;;;2.17;1.10;;;;;21.40;101132.00;;;;2077974;28;20241;-55
2021/09/28 03:43:01;;;;;;;4.50;1.40;;;;;21.50;101127.00;;;;2078651;28;20297;-55
2021/09/28 03:44:01;;;;;;;1.60;1.20;;;;;21.50;101133.00;;;;2078688;28;20216;-54
2021/09/28 03:45:02;;;;;;;3.93;1.47;;;;;21.50;101130.00;;;;2078162;28;20206;-53
2021/09/28 03:46:02;;;;;;;3.20;1.30;;;;;21.50;101139.00;;;;2078620;28;20284;-55
2021/09/28 03:47:03;;;;;;;2.33;1.40;;;;;21.50;101140.00;;;;2078536;28;20512;-55
2021/09/28 03:48:04;;;;;;;1.77;1.27;;;;;21.50;101137.00;;;;2078532;28;20198;-54
2021/09/28 03:49:04;;;;;;;3.80;1.50;;;;;21.50;101128.00;;;;2074592;28;20294;-53
2021/09/28 03:50:05;;;;;;;3.00;1.40;;;;;21.50;101138.00;;;;2079357;28;20777;-54
2021/09/28 03:51:07;;;;;;;2.57;1.27;;;;;21.50;101128.00;;;;2086625;28;20216;-53
2021/09/28 03:52:07;;;;;;;2.50;1.25;;;;;21.40;101129.00;;;;2079807;28;20460;-55
2021/09/28 03:53:07;;;;;;;3.63;1.70;;;;;21.50;101127.00;;;;2078526;28;20210;-54
2021/09/28 03:54:08;;;;;;;2.30;1.00;;;;;21.50;101130.00;;;;2078563;28;20206;-55
2021/09/28 03:55:09;;;;;;;2.20;1.20;;;;;21.50;101132.00;;;;2076257;28;20233;-55
2021/09/28 03:56:09;;;;;;;3.43;1.27;;;;;21.50;101123.00;;;;2078514;28;22968;-54
2021/09/28 03:57:09;;;;;;;2.63;1.37;;;;;21.40;101129.00;;;;2077724;28;21034;-54
2021/09/28 03:58:12;;;;;;;2.77;1.20;;;;;21.50;101129.00;;;;2078366;28;20233;-53
2021/09/28 03:59:12;;;;;;;3.58;1.20;;;;;21.40;101133.00;;;;2077333;28;20583;-54
2021/09/28 04:00:13;;;;;;;4.30;1.33;;;;;21.50;101134.00;;;;2078433;28;20221;-55
2021/09/28 04:01:13;;;;;;;4.50;1.40;;;;;21.50;101134.00;;;;2079999;28;20716;-54
2021/09/28 04:02:14;;;;;;;2.43;1.23;;;;;21.50;101133.00;;;;2080393;28;20467;-53
2021/09/28 04:03:14;;;;;;;2.70;1.30;;;;;21.50;101134.00;;;;2078640;28;21027;-55
2021/09/28 04:04:15;;;;;;;3.03;1.30;;;;;21.40;101131.00;;;;2078962;28;20221;-54
2021/09/28 04:05:15;;;;;;;1.83;1.20;;;;;21.50;101135.00;;;;2078490;28;20263;-54
2021/09/28 04:06:15;;;;;;;2.93;1.60;;;;;21.40;101131.00;;;;2078524;28;20694;-54
2021/09/28 04:07:16;;;;;;;3.53;1.40;;;;;21.40;101129.00;;;;2078479;28;20221;-53
2021/09/28 04:08:16;;;;;;;3.27;1.37;;;;;21.40;101145.00;;;;2078540;28;20222;-54
2021/09/28 04:09:16;;;;;;;2.80;1.07;;;;;21.40;101140.00;;;;2077487;28;20220;-54
2021/09/28 04:10:17;;;;;;;3.50;1.53;;;;;21.50;101139.00;;;;2078494;28;20355;-55
2021/09/28 04:11:17;;;;;;;1.90;1.07;;;;;21.40;101140.00;;;;2078623;28;20909;-55
2021/09/28 04:12:19;;;;;;;3.47;1.17;;;;;21.40;101138.00;;;;2078216;28;20218;-55
2021/09/28 04:13:19;;;;;;;4.90;1.75;;;;;21.40;101142.00;;;;2076081;28;20221;-55
2021/09/28 04:14:21;;;;;;;3.20;1.40;;;;;21.40;101147.00;;;;2078635;28;20216;-54
2021/09/28 04:15:25;;;;;;;3.08;1.40;;;;;21.40;101152.00;;;;2077927;28;20647;-55
2021/09/28 04:16:28;;;;;;;3.83;1.33;;;;;21.40;101146.00;;;;2077940;28;20224;-54
2021/09/28 04:17:28;;;;;;;3.30;1.20;;;;;21.40;101129.00;;;;2077242;28;20260;-53
2021/09/28 04:18:28;;;;;;;4.40;1.07;;;;;21.40;101147.00;;;;2077578;28;20299;-54
2021/09/28 04:19:29;;;;;;;2.40;1.17;;;;;21.40;101153.00;;;;2076680;28;20260;-53
2021/09/28 04:20:30;;;;;;;2.70;1.23;;;;;21.40;101146.00;;;;2077855;28;20276;-55
2021/09/28 04:21:32;;;;;;;2.65;1.35;;;;;21.40;101142.00;;;;2079667;28;20214;-55
2021/09/28 04:22:32;;;;;;;3.25;1.45;;;;;21.40;101149.00;;;;2078010;28;20217;-55
2021/09/28 04:23:33;;;;;;;3.00;1.10;;;;;21.40;101147.00;;;;2076345;28;20618;-53
2021/09/28 04:24:33;;;;;;;3.30;1.70;;;;;21.50;101151.00;;;;2085384;28;20213;-54
2021/09/28 04:25:33;;;;;;;3.17;1.40;;;;;21.40;101144.00;;;;2082337;28;20276;-55
2021/09/28 04:26:34;;;;;;;2.80;1.20;;;;;21.40;101153.00;;;;2087341;28;21059;-53
2021/09/28 04:27:36;;;;;;;4.65;1.60;;;;;21.40;101149.00;;;;2087232;28;20220;-53
2021/09/28 04:28:36;;;;;;;2.17;1.17;;;;;21.30;101146.00;;;;2087221;28;20220;-55
2021/09/28 04:29:37;;;;;;;2.83;1.17;;;;;21.40;101145.00;;;;2078403;28;20216;-54
2021/09/28 04:30:38;;;;;;;3.05;1.25;;;;;21.40;101152.00;;;;2086214;28;20216;-54
2021/09/28 04:31:38;;;;;;;3.10;1.30;;;;;21.40;101151.00;;;;2088371;28;20235;-55
2021/09/28 04:32:38;;;;;;;2.10;1.30;;;;;21.40;101154.00;;;;2087746;28;20236;-55
2021/09/28 04:33:39;;;;;;;2.63;1.20;;;;;21.40;101154.00;;;;2080707;28;20723;-53
2021/09/28 04:34:40;;;;;;;1.80;1.10;;;;;21.40;101151.00;;;;2079332;28;20563;-55
2021/09/28 04:35:40;;;;;;;2.23;1.40;;;;;21.40;101152.00;;;;2079348;28;20457;-55
2021/09/28 04:36:41;;;;;;;4.77;1.70;;;;;21.40;101153.00;;;;2078549;28;20210;-55
2021/09/28 04:37:42;;;;;;;3.15;1.27;;;;;21.40;101157.00;;;;2079938;28;20582;-55
2021/09/28 04:38:42;;;;;;;2.90;1.03;;;;;21.40;101168.00;;;;2081730;28;20241;-55
2021/09/28 04:39:42;;;;;;;2.23;1.43;;;;;21.40;101151.00;;;;2086587;28;20775;-55
2021/09/28 04:40:43;;;;;;;2.40;1.33;;;;;21.40;101154.00;;;;2088087;28;20221;-56
2021/09/28 04:41:43;;;;;;;3.43;1.50;;;;;21.40;101151.00;;;;2087739;28;20213;-54
2021/09/28 04:42:44;;;;;;;2.83;1.40;;;;;21.40;101157.00;;;;2087516;28;20217;-55
2021/09/28 04:43:44;;;;;;;1.33;1.00;;;;;21.40;101160.00;;;;2087610;28;20221;-55
2021/09/28 04:44:44;;;;;;;1.83;1.17;;;;;21.40;101159.00;;;;2086452;28;20296;-55
2021/09/28 04:45:45;;;;;;;2.13;1.33;;;;;21.40;101158.00;;;;2080953;28;20218;-54
2021/09/28 04:46:45;;;;;;;2.23;1.03;;;;;21.40;101164.00;;;;2084686;28;20209;-55
2021/09/28 04:47:45;;;;;;;2.53;1.00;;;;;21.40;101157.00;;;;2087683;28;20767;-53
2021/09/28 04:48:46;;;;;;;3.50;1.50;;;;;21.40;101159.00;;;;2086329;28;20205;-55
2021/09/28 04:49:46;;;;;;;2.17;1.37;;;;;21.40;101162.00;;;;2087112;28;21734;-55
2021/09/28 04:50:47;;;;;;;3.37;1.70;;;;;21.40;101160.00;;;;2087591;28;20224;-55
2021/09/28 04:51:47;;;;;;;2.13;1.33;;;;;21.40;101166.00;;;;2087523;28;20217;-56
2021/09/28 04:52:48;;;;;;;2.13;1.00;;;;;21.40;101159.00;;;;2087521;28;20224;-54
2021/09/28 04:53:48;;;;;;;4.20;1.13;;;;;21.40;101154.00;;;;2087448;28;20302;-55
2021/09/28 04:54:49;;;;;;;2.60;1.10;;;;;21.40;101164.00;;;;2085151;28;20894;-55
2021/09/28 04:55:54;;;;;;;5.07;1.73;;;;;21.40;101164.00;;;;2087115;28;20821;-55
2021/09/28 04:56:54;;;;;;;3.20;1.00;;;;;21.40;101162.00;;;;2086502;28;20359;-54
2021/09/28 04:57:55;;;;;;;3.27;1.40;;;;;21.40;101170.00;;;;2087488;28;20993;-54
2021/09/28 04:58:55;;;;;;;3.70;1.67;;;;;21.40;101168.00;;;;2082664;28;20224;-56
2021/09/28 04:59:56;;;;;;;4.37;1.80;;;;;21.40;101170.00;;;;2087146;28;20212;-54